createdAt,value
2022-10-23T00:00:59.435Z,12.27
2022-10-23T00:02:01.201Z,12.27
2022-10-23T00:03:02.911Z,12.27
2022-10-23T00:04:04.667Z,12.26
2022-10-23T00:05:06.365Z,12.25
2022-10-23T00:06:08.102Z,12.24
2022-10-23T00:07:09.854Z,12.23
2022-10-23T00:08:11.574Z,12.23
2022-10-23T00:09:13.332Z,12.21
2022-10-23T00:10:15.092Z,12.2
2022-10-23T00:11:16.783Z,12.19
2022-10-23T00:12:18.518Z,12.17
2022-10-23T00:13:20.249Z,12.17
2022-10-23T00:14:21.991Z,12.15
2022-10-23T00:15:23.708Z,12.14
2022-10-23T00:16:25.454Z,12.13
2022-10-23T00:17:27.187Z,12.11
2022-10-23T00:18:28.933Z,12.1
2022-10-23T00:19:30.717Z,12.1
2022-10-23T00:20:32.394Z,12.09
2022-10-23T00:21:34.131Z,12.08
2022-10-23T00:22:35.847Z,12.08
2022-10-23T00:23:37.588Z,12.08
2022-10-23T00:24:39.334Z,12.08
2022-10-23T00:25:41.093Z,12.07
2022-10-23T00:26:42.786Z,12.07
2022-10-23T00:27:44.859Z,12.08
2022-10-23T00:28:46.283Z,12.07
2022-10-23T00:29:48.009Z,12.07
2022-10-23T00:30:49.735Z,12.08
2022-10-23T00:31:51.461Z,12.07
2022-10-23T00:32:53.205Z,12.06
2022-10-23T00:33:54.936Z,12.06
2022-10-23T00:34:56.665Z,12.06
2022-10-23T00:35:58.385Z,12.04
2022-10-23T00:37:00.197Z,12.04
2022-10-23T00:38:01.863Z,12.04
2022-10-23T00:39:03.607Z,12.03
2022-10-23T00:40:05.330Z,12.03
2022-10-23T00:41:07.131Z,12.02
2022-10-23T00:42:08.794Z,12.02
2022-10-23T00:43:10.548Z,12.01
2022-10-23T00:44:12.282Z,12
2022-10-23T00:45:14.002Z,11.99
2022-10-23T00:46:15.747Z,11.98
2022-10-23T00:47:17.478Z,11.97
2022-10-23T00:48:19.206Z,11.97
2022-10-23T00:49:20.977Z,11.96
2022-10-23T00:50:22.684Z,11.96
2022-10-23T00:51:24.423Z,11.95
2022-10-23T00:52:26.148Z,11.95
2022-10-23T00:53:27.889Z,11.95
2022-10-23T00:54:29.627Z,11.95
2022-10-23T00:55:31.346Z,11.95
2022-10-23T00:56:33.085Z,11.95
2022-10-23T00:57:34.837Z,11.95
2022-10-23T00:58:36.568Z,11.96
2022-10-23T00:59:38.283Z,11.96
2022-10-23T01:00:40.028Z,11.96
2022-10-23T01:01:41.919Z,11.95
2022-10-23T01:02:43.851Z,11.95
2022-10-23T01:03:45.231Z,11.95
2022-10-23T01:04:46.962Z,11.94
2022-10-23T01:05:48.733Z,11.95
2022-10-23T01:06:50.429Z,11.94
2022-10-23T01:07:52.162Z,11.93
2022-10-23T01:08:53.907Z,11.92
2022-10-23T01:09:55.631Z,11.92
2022-10-23T01:10:57.368Z,11.91
2022-10-23T01:11:59.109Z,11.91
2022-10-23T01:13:00.847Z,11.9
2022-10-23T01:15:04.322Z,11.89
2022-10-23T01:16:06.043Z,11.88
2022-10-23T01:17:07.788Z,11.88
2022-10-23T01:18:09.517Z,11.87
2022-10-23T01:19:11.264Z,11.87
2022-10-23T01:20:12.976Z,11.86
2022-10-23T01:21:14.721Z,11.85
2022-10-23T01:22:16.487Z,11.84
2022-10-23T01:23:18.177Z,11.83
2022-10-23T01:24:19.917Z,11.82
2022-10-23T01:25:21.649Z,11.82
2022-10-23T01:26:23.376Z,11.8
2022-10-23T01:27:25.117Z,11.8
2022-10-23T01:28:26.840Z,11.79
2022-10-23T01:29:28.595Z,11.78
2022-10-23T01:30:30.330Z,11.77
2022-10-23T01:31:32.076Z,11.77
2022-10-23T01:32:33.786Z,11.76
2022-10-23T01:33:35.511Z,11.75
2022-10-23T01:34:37.251Z,11.74
2022-10-23T01:35:38.975Z,11.72
2022-10-23T01:36:40.704Z,11.71
2022-10-23T01:37:42.441Z,11.7
2022-10-23T01:38:44.174Z,11.68
2022-10-23T01:39:45.927Z,11.66
2022-10-23T01:40:47.658Z,11.64
2022-10-23T01:41:49.381Z,11.63
2022-10-23T01:42:51.127Z,11.6
2022-10-23T01:43:52.858Z,11.57
2022-10-23T01:44:54.596Z,11.54
2022-10-23T01:45:56.329Z,11.52
2022-10-23T01:46:58.054Z,11.49
2022-10-23T01:47:59.795Z,11.47
2022-10-23T01:49:01.528Z,11.43
2022-10-23T01:50:03.247Z,11.41
2022-10-23T01:51:04.991Z,11.37
2022-10-23T01:52:06.719Z,11.35
2022-10-23T01:53:08.465Z,11.31
2022-10-23T01:54:10.194Z,11.3
2022-10-23T01:55:11.922Z,11.27
2022-10-23T01:56:13.654Z,11.24
2022-10-23T01:57:15.403Z,11.22
2022-10-23T01:58:17.147Z,11.21
2022-10-23T01:59:18.868Z,11.2
2022-10-23T02:00:20.601Z,11.21
2022-10-23T02:01:22.474Z,11.22
2022-10-23T02:02:24.179Z,11.25
2022-10-23T02:03:25.811Z,11.26
2022-10-23T02:04:27.537Z,11.27
2022-10-23T02:05:29.276Z,11.28
2022-10-23T02:06:31.005Z,11.29
2022-10-23T02:07:32.746Z,11.3
2022-10-23T02:08:34.478Z,11.31
2022-10-23T02:09:36.207Z,11.32
2022-10-23T02:10:37.939Z,11.32
2022-10-23T02:11:39.673Z,11.33
2022-10-23T02:12:41.413Z,11.33
2022-10-23T02:13:43.146Z,11.33
2022-10-23T02:14:44.885Z,11.33
2022-10-23T02:15:46.610Z,11.34
2022-10-23T02:16:48.353Z,11.33
2022-10-23T02:17:50.094Z,11.32
2022-10-23T02:18:51.820Z,11.32
2022-10-23T02:19:53.562Z,11.31
2022-10-23T02:20:55.278Z,11.3
2022-10-23T02:21:57.021Z,11.3
2022-10-23T02:22:58.759Z,11.29
2022-10-23T02:24:00.514Z,11.29
2022-10-23T02:25:02.214Z,11.28
2022-10-23T02:26:03.961Z,11.28
2022-10-23T02:27:05.686Z,11.28
2022-10-23T02:28:07.427Z,11.26
2022-10-23T02:29:09.197Z,11.26
2022-10-23T02:30:10.947Z,11.25
2022-10-23T02:31:12.630Z,11.25
2022-10-23T02:32:14.372Z,11.25
2022-10-23T02:33:16.092Z,11.25
2022-10-23T02:34:17.841Z,11.25
2022-10-23T02:35:19.572Z,11.26
2022-10-23T02:36:21.307Z,11.26
2022-10-23T02:37:23.041Z,11.27
2022-10-23T02:38:24.782Z,11.28
2022-10-23T02:39:26.511Z,11.29
2022-10-23T02:40:28.244Z,11.29
2022-10-23T02:41:29.988Z,11.29
2022-10-23T02:42:31.729Z,11.29
2022-10-23T02:43:33.436Z,11.29
2022-10-23T02:44:35.190Z,11.3
2022-10-23T02:45:36.818Z,11.3
2022-10-23T02:46:38.487Z,11.29
2022-10-23T02:47:40.459Z,11.29
2022-10-23T02:48:41.964Z,11.29
2022-10-23T02:49:43.710Z,11.28
2022-10-23T02:50:45.435Z,11.29
2022-10-23T02:51:47.156Z,11.28
2022-10-23T02:52:48.902Z,11.27
2022-10-23T02:53:50.897Z,11.26
2022-10-23T02:54:52.354Z,11.25
2022-10-23T02:55:54.129Z,11.25
2022-10-23T02:56:55.821Z,11.24
2022-10-23T02:57:57.569Z,11.23
2022-10-23T02:58:59.298Z,11.23
2022-10-23T03:00:01.032Z,11.21
2022-10-23T03:01:02.827Z,11.2
2022-10-23T03:02:04.721Z,11.19
2022-10-23T03:03:06.275Z,11.18
2022-10-23T03:04:08.005Z,11.16
2022-10-23T03:05:09.709Z,11.15
2022-10-23T03:06:11.440Z,11.12
2022-10-23T03:07:13.170Z,11.1
2022-10-23T03:08:14.921Z,11.09
2022-10-23T03:09:16.652Z,11.07
2022-10-23T03:10:18.380Z,11.06
2022-10-23T03:11:20.116Z,11.04
2022-10-23T03:12:21.853Z,11.03
2022-10-23T03:13:23.578Z,11.01
2022-10-23T03:14:25.308Z,10.99
2022-10-23T03:15:27.042Z,10.97
2022-10-23T03:16:28.781Z,10.96
2022-10-23T03:17:30.509Z,10.95
2022-10-23T03:18:32.249Z,10.95
2022-10-23T03:19:33.997Z,10.95
2022-10-23T03:20:35.712Z,10.95
2022-10-23T03:21:37.438Z,10.95
2022-10-23T03:22:39.175Z,10.96
2022-10-23T03:23:40.919Z,10.95
2022-10-23T03:24:42.653Z,10.96
2022-10-23T03:25:44.390Z,10.96
2022-10-23T03:26:46.117Z,10.96
2022-10-23T03:27:47.852Z,10.96
2022-10-23T03:28:49.583Z,10.96
2022-10-23T03:29:51.323Z,10.96
2022-10-23T03:30:53.058Z,10.96
2022-10-23T03:31:54.793Z,10.96
2022-10-23T03:32:56.519Z,10.96
2022-10-23T03:33:58.284Z,10.96
2022-10-23T03:34:59.991Z,10.95
2022-10-23T03:36:01.717Z,10.95
2022-10-23T03:37:03.469Z,10.96
2022-10-23T03:38:05.198Z,10.96
2022-10-23T03:39:06.939Z,10.97
2022-10-23T03:40:08.669Z,10.97
2022-10-23T03:41:10.405Z,10.98
2022-10-23T03:42:12.148Z,10.98
2022-10-23T03:43:13.878Z,10.98
2022-10-23T03:44:15.625Z,10.98
2022-10-23T03:45:17.334Z,10.99
2022-10-23T03:46:19.082Z,11
2022-10-23T03:47:20.813Z,11
2022-10-23T03:48:22.548Z,11.02
2022-10-23T03:49:24.281Z,11.02
2022-10-23T03:50:26.053Z,11.03
2022-10-23T03:51:27.747Z,11.04
2022-10-23T03:52:29.491Z,11.04
2022-10-23T03:53:31.209Z,11.04
2022-10-23T03:54:32.950Z,11.04
2022-10-23T03:55:34.685Z,11.04
2022-10-23T03:56:36.406Z,11.04
2022-10-23T03:57:38.161Z,11.04
2022-10-23T03:58:39.876Z,11.04
2022-10-23T03:59:41.627Z,11.04
2022-10-23T04:00:44.100Z,11.03
2022-10-23T04:01:45.210Z,11.02
2022-10-23T04:02:47.335Z,11.02
2022-10-23T04:03:48.559Z,11.01
2022-10-23T04:04:50.282Z,11
2022-10-23T04:05:52.420Z,11
2022-10-23T04:06:53.750Z,10.99
2022-10-23T04:07:55.486Z,10.98
2022-10-23T04:08:57.221Z,10.98
2022-10-23T04:09:58.955Z,10.96
2022-10-23T04:11:00.699Z,10.95
2022-10-23T04:12:02.439Z,10.94
2022-10-23T04:13:04.174Z,10.93
2022-10-23T04:14:05.902Z,10.93
2022-10-23T04:15:07.633Z,10.91
2022-10-23T04:16:09.383Z,10.9
2022-10-23T04:17:11.107Z,10.88
2022-10-23T04:18:12.834Z,10.86
2022-10-23T04:19:14.569Z,10.86
2022-10-23T04:20:16.300Z,10.84
2022-10-23T04:21:18.036Z,10.84
2022-10-23T04:22:20.609Z,10.82
2022-10-23T04:23:21.497Z,10.82
2022-10-23T04:24:23.243Z,10.81
2022-10-23T04:25:24.967Z,10.8
2022-10-23T04:26:26.713Z,10.79
2022-10-23T04:27:28.439Z,10.79
2022-10-23T04:28:30.166Z,10.78
2022-10-23T04:29:31.919Z,10.77
2022-10-23T04:30:33.636Z,10.77
2022-10-23T04:31:35.407Z,10.76
2022-10-23T04:32:37.105Z,10.77
2022-10-23T04:33:38.842Z,10.76
2022-10-23T04:34:40.591Z,10.77
2022-10-23T04:35:42.317Z,10.76
2022-10-23T04:36:44.042Z,10.75
2022-10-23T04:37:45.902Z,10.73
2022-10-23T04:38:47.520Z,10.72
2022-10-23T04:39:49.252Z,10.7
2022-10-23T04:40:50.985Z,10.69
2022-10-23T04:41:52.709Z,10.67
2022-10-23T04:42:54.447Z,10.65
2022-10-23T04:43:56.188Z,10.64
2022-10-23T04:44:57.923Z,10.63
2022-10-23T04:45:59.647Z,10.63
2022-10-23T04:47:01.376Z,10.63
2022-10-23T04:48:03.117Z,10.63
2022-10-23T04:49:04.865Z,10.64
2022-10-23T04:50:06.578Z,10.65
2022-10-23T04:51:08.315Z,10.65
2022-10-23T04:52:10.042Z,10.66
2022-10-23T04:53:11.786Z,10.67
2022-10-23T04:54:13.533Z,10.66
2022-10-23T04:55:15.260Z,10.67
2022-10-23T04:56:17.000Z,10.66
2022-10-23T04:57:18.739Z,10.66
2022-10-23T04:58:20.452Z,10.67
2022-10-23T04:59:22.195Z,10.66
2022-10-23T05:00:23.915Z,10.66
2022-10-23T05:01:25.742Z,10.66
2022-10-23T05:02:27.395Z,10.65
2022-10-23T05:03:29.133Z,10.65
2022-10-23T05:04:30.864Z,10.65
2022-10-23T05:05:32.590Z,10.64
2022-10-23T05:06:34.334Z,10.65
2022-10-23T05:07:36.062Z,10.64
2022-10-23T05:08:37.802Z,10.64
2022-10-23T05:09:39.548Z,10.63
2022-10-23T05:10:41.278Z,10.62
2022-10-23T05:11:43.008Z,10.61
2022-10-23T05:12:44.741Z,10.6
2022-10-23T05:13:46.484Z,10.59
2022-10-23T05:14:48.209Z,10.59
2022-10-23T05:15:49.944Z,10.57
2022-10-23T05:16:51.695Z,10.57
2022-10-23T05:17:53.414Z,10.55
2022-10-23T05:18:55.158Z,10.54
2022-10-23T05:19:56.897Z,10.53
2022-10-23T05:20:58.630Z,10.52
2022-10-23T05:22:00.359Z,10.5
2022-10-23T05:23:02.183Z,10.5
2022-10-23T05:24:03.829Z,10.49
2022-10-23T05:25:05.571Z,10.49
2022-10-23T05:26:07.312Z,10.48
2022-10-23T05:27:09.026Z,10.48
2022-10-23T05:28:10.762Z,10.47
2022-10-23T05:29:12.504Z,10.46
2022-10-23T05:30:14.243Z,10.46
2022-10-23T05:31:15.957Z,10.45
2022-10-23T05:32:17.723Z,10.44
2022-10-23T05:33:19.434Z,10.44
2022-10-23T05:34:21.154Z,10.43
2022-10-23T05:35:22.905Z,10.43
2022-10-23T05:36:24.629Z,10.43
2022-10-23T05:37:26.391Z,10.43
2022-10-23T05:38:28.112Z,10.43
2022-10-23T05:39:29.840Z,10.43
2022-10-23T05:40:31.668Z,10.44
2022-10-23T05:41:33.311Z,10.45
2022-10-23T05:42:37.150Z,10.46
2022-10-23T05:43:36.776Z,10.47
2022-10-23T05:44:38.512Z,10.49
2022-10-23T05:45:40.262Z,10.5
2022-10-23T05:46:41.973Z,10.5
2022-10-23T05:47:43.709Z,10.51
2022-10-23T05:48:45.455Z,10.52
2022-10-23T05:49:47.178Z,10.53
2022-10-23T05:50:48.933Z,10.54
2022-10-23T05:51:50.656Z,10.54
2022-10-23T05:52:52.401Z,10.55
2022-10-23T05:53:54.122Z,10.55
2022-10-23T05:54:55.862Z,10.56
2022-10-23T05:55:57.604Z,10.56
2022-10-23T05:56:59.327Z,10.56
2022-10-23T05:58:01.063Z,10.57
2022-10-23T05:59:02.812Z,10.57
2022-10-23T06:00:04.532Z,10.56
2022-10-23T06:01:06.342Z,10.56
2022-10-23T06:02:08.102Z,10.56
2022-10-23T06:03:09.733Z,10.55
2022-10-23T06:04:11.464Z,10.54
2022-10-23T06:05:13.199Z,10.54
2022-10-23T06:06:14.941Z,10.53
2022-10-23T06:07:16.660Z,10.51
2022-10-23T06:08:18.400Z,10.5
2022-10-23T06:09:20.140Z,10.48
2022-10-23T06:10:21.872Z,10.47
2022-10-23T06:11:23.611Z,10.45
2022-10-23T06:12:25.337Z,10.43
2022-10-23T06:13:27.075Z,10.42
2022-10-23T06:14:28.813Z,10.4
2022-10-23T06:15:30.542Z,10.39
2022-10-23T06:16:32.281Z,10.38
2022-10-23T06:17:34.018Z,10.37
2022-10-23T06:18:35.750Z,10.35
2022-10-23T06:19:37.487Z,10.33
2022-10-23T06:20:39.212Z,10.32
2022-10-23T06:21:40.942Z,10.32
2022-10-23T06:22:42.923Z,10.32
2022-10-23T06:23:44.432Z,10.32
2022-10-23T06:24:46.150Z,10.32
2022-10-23T06:25:47.893Z,10.33
2022-10-23T06:26:49.644Z,10.34
2022-10-23T06:27:51.361Z,10.34
2022-10-23T06:28:53.092Z,10.35
2022-10-23T06:29:54.871Z,10.35
2022-10-23T06:30:56.568Z,10.35
2022-10-23T06:31:58.311Z,10.35
2022-10-23T06:33:03.223Z,10.35
2022-10-23T06:34:01.773Z,10.35
2022-10-23T06:35:03.504Z,10.35
2022-10-23T06:36:05.235Z,10.34
2022-10-23T06:37:06.973Z,10.34
2022-10-23T06:38:08.708Z,10.33
2022-10-23T06:39:10.442Z,10.33
2022-10-23T06:40:12.193Z,10.33
2022-10-23T06:41:13.935Z,10.32
2022-10-23T06:42:15.662Z,10.31
2022-10-23T06:43:17.367Z,10.32
2022-10-23T06:44:19.108Z,10.31
2022-10-23T06:45:20.849Z,10.31
2022-10-23T06:46:22.593Z,10.31
2022-10-23T06:47:24.353Z,10.29
2022-10-23T06:48:26.051Z,10.28
2022-10-23T06:49:27.795Z,10.28
2022-10-23T06:50:29.528Z,10.28
2022-10-23T06:51:31.292Z,10.28
2022-10-23T06:52:46.360Z,10.28
2022-10-23T06:53:34.735Z,10.28
2022-10-23T06:54:36.457Z,10.3
2022-10-23T06:56:39.918Z,10.32
2022-10-23T06:57:42.164Z,10.35
2022-10-23T06:58:43.392Z,10.36
2022-10-23T06:59:45.134Z,10.38
2022-10-23T07:00:46.925Z,10.39
2022-10-23T07:01:48.851Z,10.41
2022-10-23T07:02:50.350Z,10.42
2022-10-23T07:03:52.071Z,10.44
2022-10-23T07:04:53.805Z,10.46
2022-10-23T07:05:55.541Z,10.48
2022-10-23T07:06:57.285Z,10.5
2022-10-23T07:07:59.011Z,10.52
2022-10-23T07:09:00.754Z,10.54
2022-10-23T07:10:02.570Z,10.57
2022-10-23T07:11:04.197Z,10.61
2022-10-23T07:12:05.953Z,10.65
2022-10-23T07:13:07.679Z,10.68
2022-10-23T07:14:09.432Z,10.72
2022-10-23T07:15:11.144Z,10.75
2022-10-23T07:16:12.890Z,10.8
2022-10-23T07:17:14.625Z,10.84
2022-10-23T07:18:16.358Z,10.87
2022-10-23T07:19:18.100Z,10.93
2022-10-23T07:20:19.829Z,10.98
2022-10-23T07:21:21.558Z,11.03
2022-10-23T07:22:23.301Z,11.08
2022-10-23T07:23:25.026Z,11.12
2022-10-23T07:24:26.761Z,11.17
2022-10-23T07:25:28.494Z,11.22
2022-10-23T07:26:30.232Z,11.25
2022-10-23T07:27:31.975Z,11.28
2022-10-23T07:28:33.706Z,11.3
2022-10-23T07:29:35.447Z,11.33
2022-10-23T07:30:37.191Z,11.36
2022-10-23T07:31:38.907Z,11.39
2022-10-23T07:32:40.635Z,11.41
2022-10-23T07:33:42.367Z,11.44
2022-10-23T07:34:44.104Z,11.47
2022-10-23T07:35:45.839Z,11.5
2022-10-23T07:36:47.575Z,11.54
2022-10-23T07:37:49.301Z,11.58
2022-10-23T07:38:51.039Z,11.61
2022-10-23T07:39:52.761Z,11.64
2022-10-23T07:40:54.512Z,11.67
2022-10-23T07:41:56.243Z,11.7
2022-10-23T07:42:57.979Z,11.74
2022-10-23T07:43:59.711Z,11.78
2022-10-23T07:45:01.437Z,11.82
2022-10-23T07:46:03.168Z,11.85
2022-10-23T07:47:04.963Z,11.88
2022-10-23T07:48:06.649Z,11.92
2022-10-23T07:49:08.392Z,11.93
2022-10-23T07:50:10.170Z,11.97
2022-10-23T07:51:11.887Z,12
2022-10-23T07:52:13.585Z,12.03
2022-10-23T07:53:15.312Z,12.08
2022-10-23T07:54:17.074Z,12.12
2022-10-23T07:55:18.770Z,12.14
2022-10-23T07:56:20.525Z,12.19
2022-10-23T07:57:22.253Z,12.22
2022-10-23T07:58:23.999Z,12.23
2022-10-23T07:59:25.226Z,12.25
2022-10-23T08:00:25.557Z,12.26
2022-10-23T08:01:27.187Z,12.28
2022-10-23T08:02:28.881Z,12.27
2022-10-23T08:03:30.585Z,12.28
2022-10-23T08:04:32.356Z,12.28
2022-10-23T08:05:34.067Z,12.27
2022-10-23T08:06:35.795Z,12.27
2022-10-23T08:07:37.526Z,12.28
2022-10-23T08:08:39.307Z,12.28
2022-10-23T08:09:41.031Z,12.28
2022-10-23T08:10:42.747Z,12.27
2022-10-23T08:11:44.477Z,12.25
2022-10-23T08:12:46.198Z,12.27
2022-10-23T08:13:47.930Z,12.27
2022-10-23T08:14:49.681Z,12.27
2022-10-23T08:15:51.426Z,12.27
2022-10-23T08:16:53.190Z,12.28
2022-10-23T08:17:54.887Z,12.26
2022-10-23T08:18:56.614Z,12.27
2022-10-23T08:19:58.340Z,12.26
2022-10-23T08:21:00.097Z,12.25
2022-10-23T08:22:01.802Z,12.23
2022-10-23T08:23:03.541Z,12.23
2022-10-23T08:24:05.286Z,12.22
2022-10-23T08:25:07.021Z,12.22
2022-10-23T08:26:08.769Z,12.21
2022-10-23T08:27:10.504Z,12.21
2022-10-23T08:28:12.225Z,12.21
2022-10-23T08:29:13.947Z,12.22
2022-10-23T08:30:15.700Z,12.22
2022-10-23T08:31:17.443Z,12.23
2022-10-23T08:32:19.154Z,12.25
2022-10-23T08:33:20.894Z,12.27
2022-10-23T08:34:22.638Z,12.28
2022-10-23T08:35:24.378Z,12.28
2022-10-23T08:36:26.135Z,12.3
2022-10-23T08:37:27.842Z,12.35
2022-10-23T08:38:29.605Z,12.37
2022-10-23T08:39:31.296Z,12.4
2022-10-23T08:40:33.029Z,12.4
2022-10-23T08:41:34.780Z,12.4
2022-10-23T08:42:36.500Z,12.4
2022-10-23T08:43:38.239Z,12.41
2022-10-23T08:44:39.956Z,12.42
2022-10-23T08:45:41.712Z,12.42
2022-10-23T08:46:43.449Z,12.42
2022-10-23T08:47:45.176Z,12.43
2022-10-23T08:48:46.953Z,12.44
2022-10-23T08:49:48.644Z,12.44
2022-10-23T08:50:50.372Z,12.44
2022-10-23T08:51:52.114Z,12.45
2022-10-23T08:52:53.846Z,12.46
2022-10-23T08:53:55.579Z,12.46
2022-10-23T08:54:57.319Z,12.47
2022-10-23T08:55:59.044Z,12.48
2022-10-23T08:57:00.784Z,12.49
2022-10-23T08:58:02.516Z,12.48
2022-10-23T08:59:04.250Z,12.49
2022-10-23T09:00:05.977Z,12.47
2022-10-23T09:01:07.844Z,12.47
2022-10-23T09:02:10.668Z,12.46
2022-10-23T09:03:11.197Z,12.47
2022-10-23T09:04:12.922Z,12.48
2022-10-23T09:05:14.658Z,12.49
2022-10-23T09:06:16.379Z,12.48
2022-10-23T09:07:18.134Z,12.49
2022-10-23T09:08:19.890Z,12.5
2022-10-23T09:09:21.591Z,12.51
2022-10-23T09:10:23.391Z,12.53
2022-10-23T09:11:25.071Z,12.54
2022-10-23T09:13:28.091Z,12.56
2022-10-23T09:14:29.797Z,12.58
2022-10-23T09:15:31.531Z,12.57
2022-10-23T09:16:33.271Z,12.57
2022-10-23T09:17:35.026Z,12.58
2022-10-23T09:18:36.730Z,12.59
2022-10-23T09:19:38.461Z,12.59
2022-10-23T09:20:40.251Z,12.6
2022-10-23T09:21:41.942Z,12.61
2022-10-23T09:22:43.685Z,12.62
2022-10-23T09:23:45.409Z,12.62
2022-10-23T09:24:51.568Z,12.63
2022-10-23T09:25:48.881Z,12.65
2022-10-23T09:26:50.703Z,12.66
2022-10-23T09:27:54.982Z,12.67
2022-10-23T09:28:54.075Z,12.68
2022-10-23T09:29:55.819Z,12.69
2022-10-23T09:30:57.563Z,12.69
2022-10-23T09:31:59.293Z,12.7
2022-10-23T09:33:01.034Z,12.71
2022-10-23T09:34:02.792Z,12.74
2022-10-23T09:35:04.551Z,12.76
2022-10-23T09:36:06.230Z,12.8
2022-10-23T09:37:07.961Z,12.81
2022-10-23T09:38:09.704Z,12.83
2022-10-23T09:39:11.438Z,12.88
2022-10-23T09:40:13.170Z,12.96
2022-10-23T09:41:14.903Z,13.04
2022-10-23T09:42:16.630Z,13.09
2022-10-23T09:43:18.406Z,13.13
2022-10-23T09:44:20.113Z,13.17
2022-10-23T09:45:21.842Z,13.2
2022-10-23T09:46:23.595Z,13.21
2022-10-23T09:47:25.316Z,13.23
2022-10-23T09:48:27.071Z,13.24
2022-10-23T09:49:28.796Z,13.26
2022-10-23T09:50:30.517Z,13.28
2022-10-23T09:51:32.254Z,13.29
2022-10-23T09:52:34.000Z,13.3
2022-10-23T09:53:35.741Z,13.32
2022-10-23T09:54:37.463Z,13.34
2022-10-23T09:55:39.216Z,13.35
2022-10-23T09:56:41.017Z,13.35
2022-10-23T09:57:43.207Z,13.36
2022-10-23T09:58:44.411Z,13.36
2022-10-23T09:59:46.127Z,13.37
2022-10-23T10:00:51.065Z,13.38
2022-10-23T10:01:49.834Z,13.38
2022-10-23T10:02:51.383Z,13.39
2022-10-23T10:03:53.083Z,13.39
2022-10-23T10:04:55.071Z,13.4
2022-10-23T10:05:56.559Z,13.42
2022-10-23T10:06:58.282Z,13.42
2022-10-23T10:08:00.018Z,13.44
2022-10-23T10:09:01.769Z,13.44
2022-10-23T10:10:03.480Z,13.44
2022-10-23T10:11:05.205Z,13.44
2022-10-23T10:12:06.955Z,13.45
2022-10-23T10:13:11.950Z,13.46
2022-10-23T10:14:10.424Z,13.46
2022-10-23T10:15:12.154Z,13.47
2022-10-23T10:16:13.896Z,13.47
2022-10-23T10:17:15.624Z,13.46
2022-10-23T10:18:17.356Z,13.48
2022-10-23T10:19:19.104Z,13.46
2022-10-23T10:20:20.833Z,13.46
2022-10-23T10:21:22.569Z,13.46
2022-10-23T10:22:24.288Z,13.46
2022-10-23T10:23:26.039Z,13.46
2022-10-23T10:24:27.779Z,13.46
2022-10-23T10:25:29.503Z,13.45
2022-10-23T10:26:31.275Z,13.45
2022-10-23T10:27:32.991Z,13.45
2022-10-23T10:28:34.713Z,13.44
2022-10-23T10:29:36.446Z,13.44
2022-10-23T10:30:38.170Z,13.44
2022-10-23T10:31:39.911Z,13.42
2022-10-23T10:32:41.645Z,13.42
2022-10-23T10:33:43.373Z,13.42
2022-10-23T10:34:45.117Z,13.41
2022-10-23T10:35:46.845Z,13.41
2022-10-23T10:36:48.598Z,13.41
2022-10-23T10:37:50.548Z,13.42
2022-10-23T10:38:52.056Z,13.42
2022-10-23T10:39:53.814Z,13.42
2022-10-23T10:40:55.528Z,13.41
2022-10-23T10:41:57.291Z,13.42
2022-10-23T10:42:58.993Z,13.42
2022-10-23T10:44:00.739Z,13.41
2022-10-23T10:45:02.487Z,13.42
2022-10-23T10:46:04.242Z,13.43
2022-10-23T10:47:05.934Z,13.43
2022-10-23T10:48:07.679Z,13.44
2022-10-23T10:49:09.403Z,13.48
2022-10-23T10:50:11.149Z,13.52
2022-10-23T10:51:12.864Z,13.56
2022-10-23T10:52:14.600Z,13.58
2022-10-23T10:53:16.342Z,13.61
2022-10-23T10:54:18.074Z,13.64
2022-10-23T10:55:19.815Z,13.66
2022-10-23T10:56:21.538Z,13.68
2022-10-23T10:57:23.273Z,13.71
2022-10-23T10:58:25.031Z,13.74
2022-10-23T10:59:26.741Z,13.77
2022-10-23T11:00:28.529Z,13.8
2022-10-23T11:01:30.326Z,13.81
2022-10-23T11:02:31.946Z,13.84
2022-10-23T11:03:37.547Z,13.85
2022-10-23T11:04:35.427Z,13.88
2022-10-23T11:05:37.162Z,13.87
2022-10-23T11:06:38.929Z,13.87
2022-10-23T11:07:40.891Z,13.88
2022-10-23T11:08:56.294Z,13.86
2022-10-23T11:09:44.089Z,13.87
2022-10-23T11:10:45.833Z,13.87
2022-10-23T11:11:47.566Z,13.86
2022-10-23T11:12:49.307Z,13.87
2022-10-23T11:13:51.046Z,13.88
2022-10-23T11:14:52.772Z,13.88
2022-10-23T11:15:54.538Z,13.89
2022-10-23T11:16:56.248Z,13.9
2022-10-23T11:17:57.978Z,13.93
2022-10-23T11:18:59.728Z,13.95
2022-10-23T11:20:01.449Z,13.97
2022-10-23T11:21:03.206Z,14
2022-10-23T11:22:04.935Z,14.03
2022-10-23T11:23:06.655Z,14.05
2022-10-23T11:25:10.135Z,14.1
2022-10-23T11:26:13.381Z,14.11
2022-10-23T11:27:13.590Z,14.14
2022-10-23T11:28:15.356Z,14.15
2022-10-23T11:29:17.073Z,14.17
2022-10-23T11:30:18.811Z,14.17
2022-10-23T11:31:20.539Z,14.18
2022-10-23T11:32:22.307Z,14.2
2022-10-23T11:33:24.008Z,14.22
2022-10-23T11:34:25.733Z,14.23
2022-10-23T11:35:27.469Z,14.23
2022-10-23T11:36:29.239Z,14.23
2022-10-23T11:37:30.948Z,14.24
2022-10-23T11:38:32.683Z,14.28
2022-10-23T11:39:34.413Z,14.34
2022-10-23T11:40:36.129Z,14.4
2022-10-23T11:41:37.891Z,14.47
2022-10-23T11:42:39.607Z,14.54
2022-10-23T11:43:41.331Z,14.61
2022-10-23T11:44:43.088Z,14.71
2022-10-23T11:45:44.831Z,14.78
2022-10-23T11:46:46.550Z,14.86
2022-10-23T11:47:48.295Z,14.93
2022-10-23T11:48:50.024Z,14.99
2022-10-23T11:49:51.774Z,15.06
2022-10-23T11:50:53.495Z,15.11
2022-10-23T11:51:55.238Z,15.18
2022-10-23T11:53:12.883Z,15.23
2022-10-23T11:53:58.681Z,15.29
2022-10-23T11:55:00.436Z,15.32
2022-10-23T11:56:02.168Z,15.37
2022-10-23T11:57:03.904Z,15.41
2022-10-23T11:58:05.631Z,15.45
2022-10-23T11:59:07.394Z,15.48
2022-10-23T12:00:09.097Z,15.52
2022-10-23T12:01:10.923Z,15.56
2022-10-23T12:02:12.673Z,15.6
2022-10-23T12:03:14.302Z,15.64
2022-10-23T12:04:16.052Z,15.67
2022-10-23T12:05:17.771Z,15.7
2022-10-23T12:06:19.515Z,15.74
2022-10-23T12:07:21.256Z,15.76
2022-10-23T12:08:22.987Z,15.8
2022-10-23T12:09:24.725Z,15.83
2022-10-23T12:10:26.443Z,15.86
2022-10-23T12:11:28.200Z,15.9
2022-10-23T12:12:29.945Z,15.93
2022-10-23T12:13:31.668Z,15.95
2022-10-23T12:14:33.387Z,15.99
2022-10-23T12:15:35.122Z,16.03
2022-10-23T12:16:47.292Z,16.07
2022-10-23T12:17:48.891Z,16.1
2022-10-23T12:18:50.603Z,16.13
2022-10-23T12:19:52.352Z,16.15
2022-10-23T12:20:54.072Z,16.16
2022-10-23T12:21:55.831Z,16.19
2022-10-23T12:22:57.541Z,16.21
2022-10-23T12:23:59.284Z,16.24
2022-10-23T12:25:01.051Z,16.25
2022-10-23T12:26:02.757Z,16.27
2022-10-23T12:27:04.508Z,16.29
2022-10-23T12:28:06.288Z,16.3
2022-10-23T12:29:07.971Z,16.32
2022-10-23T12:30:09.826Z,16.36
2022-10-23T12:31:11.444Z,16.4
2022-10-23T12:32:13.185Z,16.43
2022-10-23T12:33:14.912Z,16.47
2022-10-23T12:34:16.637Z,16.5
2022-10-23T12:35:18.370Z,16.53
2022-10-23T12:36:20.110Z,16.54
2022-10-23T12:37:21.854Z,16.57
2022-10-23T12:38:23.580Z,16.58
2022-10-23T12:39:25.314Z,16.61
2022-10-23T12:40:27.046Z,16.61
2022-10-23T12:41:28.802Z,16.63
2022-10-23T12:42:30.530Z,16.63
2022-10-23T12:43:32.261Z,16.64
2022-10-23T12:44:34.001Z,16.65
2022-10-23T12:45:35.719Z,16.66
2022-10-23T12:46:37.452Z,16.67
2022-10-23T12:47:40.330Z,16.68
2022-10-23T12:48:40.926Z,16.68
2022-10-23T12:49:42.660Z,16.7
2022-10-23T12:50:44.391Z,16.71
2022-10-23T12:52:01.702Z,16.71
2022-10-23T12:53:03.407Z,16.7
2022-10-23T12:54:05.130Z,16.7
2022-10-23T12:55:06.884Z,16.7
2022-10-23T12:56:08.595Z,16.7
2022-10-23T12:57:10.329Z,16.69
2022-10-23T12:58:12.074Z,16.69
2022-10-23T12:59:13.809Z,16.68
2022-10-23T13:00:15.557Z,16.67
2022-10-23T13:01:17.367Z,16.67
2022-10-23T13:02:19.122Z,16.67
2022-10-23T13:03:20.752Z,16.67
2022-10-23T13:04:22.489Z,16.67
2022-10-23T13:05:24.213Z,16.67
2022-10-23T13:06:25.961Z,16.67
2022-10-23T13:07:27.678Z,16.69
2022-10-23T13:08:29.427Z,16.69
2022-10-23T13:09:31.183Z,16.69
2022-10-23T13:10:32.934Z,16.7
2022-10-23T13:11:34.619Z,16.71
2022-10-23T13:12:36.495Z,16.7
2022-10-23T13:13:38.104Z,16.71
2022-10-23T13:14:42.146Z,16.71
2022-10-23T13:15:41.551Z,16.72
2022-10-23T13:16:43.298Z,16.73
2022-10-23T13:17:45.396Z,16.71
2022-10-23T13:18:46.766Z,16.72
2022-10-23T13:19:48.492Z,16.71
2022-10-23T13:20:50.304Z,16.72
2022-10-23T13:21:51.954Z,16.72
2022-10-23T13:22:57.675Z,16.71